Terminal Aerodrome Forecast
Issued by NWS

Home | Current Version | Previous Version | Text Only | Print | Product List | Glossary On
Versions: 1 2 3 4 5 6 7 8 9 10 11 12 13 14 15 16 17 18 19 20 21 22 23
000
FTUS43 KIND 230520
TAFBMG
TAF
KBMG 230520Z 2306/2406 18008KT P6SM VCSH OVC003
     FM230800 19011KT P6SM VCTS OVC010CB
     FM232200 27005KT 4SM SHRA VCTS OVC015CB
     FM240000 34006KT P6SM BKN020
     FM240400 32004KT P6SM SCT130
      AMD LTD TO CLD VIS AND WIND TIL 231300=

USA.gov is the U.S. government's official web portal to all federal, state and local government web resources and services.